Decoded Metar for LFOA (AVORD in FRANCE) (IATA:N/A) | Meteo·Mobile Aviation Weather
aviador You're here:

LFOA Decoded Metar

AVORD in FRANCE
Report Time2018-09-20 14:00:00
UTC Time2018-09-20 14:21:38
Flight Rules vfr VFR
WindVRB at 07 kt
Visibility9999 m
Phenomena:N/A
Clouds:N/A
Expected CloudBase > 6,800 ft AGL from Temp-Dew spread
CeilingNone
Temp28°C (ISA +14)
Dew Point11°C (35% RH)
Heat Index27.4°C
AAT25.8°C
QNH1017 hPa
Density Alt2,260 ft
Elevation587 ft
Report Wrong Elevation
Raw Report
LFOA 201400Z AUTO VRB07KT 9999 NCD 28/11 Q1017 NOSIG=

Extra information for LFOA:More info

Metar Taf Metar & Taf Last 4 Metars F.Rules Stats Wind Profile Meteogram Temp Stats Airport Information Weather charts Add Link Nearby VenuesMetar ALERT Operation Metar Decoded Social comments